Time;durP1;ratioP1;P1;durP2;ratioP2;P2;SDS_P1;SDS_P2;PMS_P1;PMS_P2;Temp;Humidity;BMP_temperature;BMP_pressure;BME280_temperature;BME280_humidity;BME280_pressure;Samples;Min_cycle;Max_cycle;Signal;HPM_P1;HPM_P2
2022/11/27 00:01:16;;;;;;;9.13;3.40;;;;;;;;;;4755184;30;20452;-84
2022/11/27 00:03:42;;;;;;;7.35;2.65;;;;;;;;;;4748012;30;20074;-84
2022/11/27 00:06:11;;;;;;;9.57;3.40;;;;;;;;;;4731764;30;20064;-84
2022/11/27 00:08:37;;;;;;;7.45;2.90;;;;;;;;;;4743150;30;20044;-84
2022/11/27 00:11:05;;;;;;;9.48;3.03;;;;;;;;;;4736117;30;20030;-84
2022/11/27 00:13:30;;;;;;;7.78;3.33;;;;;;;;;;4733280;30;20044;-84
2022/11/27 00:15:56;;;;;;;8.45;3.35;;;;;;;;;;4732513;30;20044;-84
2022/11/27 00:18:21;;;;;;;11.30;3.10;;;;;;;;;;4728245;30;20043;-84
2022/11/27 00:20:47;;;;;;;10.68;3.65;;;;;;;;;;4730925;30;20416;-85
2022/11/27 00:23:12;;;;;;;8.73;3.38;;;;;;;;;;4730003;30;20063;-85
2022/11/27 00:25:38;;;;;;;7.90;2.85;;;;;;;;;;4746918;30;20461;-85
2022/11/27 00:28:03;;;;;;;10.13;2.95;;;;;;;;;;4743277;30;20043;-85
2022/11/27 00:30:28;;;;;;;8.00;3.20;;;;;;;;;;4735099;30;20122;-85
2022/11/27 00:32:54;;;;;;;7.78;2.75;;;;;;;;;;4735798;30;20127;-84
2022/11/27 00:35:19;;;;;;;7.45;2.97;;;;;;;;;;4729256;30;20339;-85
2022/11/27 00:37:45;;;;;;;8.23;2.78;;;;;;;;;;4732512;30;20024;-84
2022/11/27 00:40:11;;;;;;;10.15;2.97;;;;;;;;;;4737529;30;20048;-84
2022/11/27 00:42:36;;;;;;;7.18;3.30;;;;;;;;;;4734189;30;20501;-84
2022/11/27 00:45:02;;;;;;;5.22;2.70;;;;;;;;;;4734204;30;20032;-84
2022/11/27 00:47:27;;;;;;;11.02;2.85;;;;;;;;;;4737460;30;20115;-84
2022/11/27 00:49:53;;;;;;;9.00;3.15;;;;;;;;;;4744079;30;20039;-84
2022/11/27 00:52:18;;;;;;;8.05;2.80;;;;;;;;;;4758242;30;20043;-84
2022/11/27 00:54:43;;;;;;;6.82;3.05;;;;;;;;;;4742743;30;20031;-84
2022/11/27 00:57:09;;;;;;;10.80;3.70;;;;;;;;;;4753886;30;20056;-85
2022/11/27 00:59:34;;;;;;;8.80;3.00;;;;;;;;;;4744928;30;20040;-84
2022/11/27 01:01:59;;;;;;;13.05;3.33;;;;;;;;;;4745138;30;20079;-84
2022/11/27 01:04:25;;;;;;;7.25;2.92;;;;;;;;;;4753619;30;20059;-85
2022/11/27 01:06:50;;;;;;;7.97;3.33;;;;;;;;;;4736687;30;20066;-84
2022/11/27 01:09:16;;;;;;;8.95;3.20;;;;;;;;;;4736750;30;20066;-84
2022/11/27 01:11:42;;;;;;;11.15;3.78;;;;;;;;;;4739990;30;20036;-84
2022/11/27 01:14:12;;;;;;;10.38;3.25;;;;;;;;;;4738180;30;20028;-84
2022/11/27 01:16:37;;;;;;;8.80;3.63;;;;;;;;;;4730363;30;20041;-84
2022/11/27 01:19:03;;;;;;;8.43;4.05;;;;;;;;;;4746343;30;20386;-84
2022/11/27 01:21:32;;;;;;;11.77;3.90;;;;;;;;;;4732483;30;20040;-84
2022/11/27 01:23:58;;;;;;;8.43;3.50;;;;;;;;;;4728631;30;21533;-83
2022/11/27 01:26:24;;;;;;;7.90;3.35;;;;;;;;;;4731001;30;20056;-85
2022/11/27 01:28:51;;;;;;;11.98;3.88;;;;;;;;;;4752799;30;20032;-85
2022/11/27 01:31:24;;;;;;;7.25;3.60;;;;;;;;;;4738611;30;20401;-84
2022/11/27 01:33:54;;;;;;;9.88;3.40;;;;;;;;;;4734650;30;20039;-85
2022/11/27 01:36:21;;;;;;;9.15;3.60;;;;;;;;;;4741184;30;20075;-85
2022/11/27 01:38:46;;;;;;;8.75;3.72;;;;;;;;;;4751167;30;20040;-85
2022/11/27 01:41:15;;;;;;;9.40;3.42;;;;;;;;;;4734339;30;20533;-85
2022/11/27 01:43:47;;;;;;;6.63;3.42;;;;;;;;;;4730792;30;20032;-84
2022/11/27 01:46:41;;;;;;;8.75;3.63;;;;;;;;;;4742562;30;20108;-85
2022/11/27 01:49:09;;;;;;;9.05;3.85;;;;;;;;;;4750371;30;20375;-84
2022/11/27 01:51:44;;;;;;;10.88;3.58;;;;;;;;;;4737347;30;20506;-84
2022/11/27 01:54:10;;;;;;;7.25;3.35;;;;;;;;;;4756885;30;20040;-84
2022/11/27 01:56:37;;;;;;;5.70;3.38;;;;;;;;;;4737020;30;20042;-84
2022/11/27 01:59:03;;;;;;;13.65;3.97;;;;;;;;;;4748751;30;20030;-85
2022/11/27 02:01:28;;;;;;;9.15;3.30;;;;;;;;;;4750453;30;20036;-84
2022/11/27 02:03:57;;;;;;;11.43;3.92;;;;;;;;;;4734739;30;20035;-84
2022/11/27 02:06:24;;;;;;;9.27;3.40;;;;;;;;;;4736568;30;20499;-85
2022/11/27 02:08:49;;;;;;;9.50;3.30;;;;;;;;;;4736072;30;20036;-84
2022/11/27 02:11:29;;;;;;;10.18;3.53;;;;;;;;;;4736587;30;20079;-85
2022/11/27 02:14:06;;;;;;;7.55;3.40;;;;;;;;;;4746516;30;20456;-84
2022/11/27 02:16:42;;;;;;;10.38;4.15;;;;;;;;;;4740126;30;20461;-84
2022/11/27 02:19:39;;;;;;;7.05;3.17;;;;;;;;;;4743598;30;20505;-84
2022/11/27 02:22:34;;;;;;;9.70;3.42;;;;;;;;;;4743423;30;20044;-84
2022/11/27 02:25:19;;;;;;;9.98;3.50;;;;;;;;;;4733075;30;20032;-84
2022/11/27 02:27:59;;;;;;;7.43;3.55;;;;;;;;;;4741531;30;20127;-83
2022/11/27 02:30:26;;;;;;;8.35;3.83;;;;;;;;;;4744561;30;20040;-84
2022/11/27 02:32:58;;;;;;;8.90;3.70;;;;;;;;;;4737764;30;20044;-84
2022/11/27 02:35:46;;;;;;;10.35;3.95;;;;;;;;;;4736398;30;20039;-85
2022/11/27 02:38:22;;;;;;;11.38;3.58;;;;;;;;;;4743851;30;20453;-83
2022/11/27 02:40:52;;;;;;;10.68;3.65;;;;;;;;;;4748819;30;20067;-84
2022/11/27 02:43:29;;;;;;;8.85;3.35;;;;;;;;;;4730895;30;20393;-84
2022/11/27 02:45:56;;;;;;;7.00;3.10;;;;;;;;;;4728626;30;20490;-84
2022/11/27 02:48:26;;;;;;;7.60;3.08;;;;;;;;;;4732256;30;20033;-85
2022/11/27 02:50:53;;;;;;;7.15;3.75;;;;;;;;;;4742275;30;20050;-84
2022/11/27 02:53:28;;;;;;;9.57;3.67;;;;;;;;;;4749823;30;20047;-85
2022/11/27 02:55:56;;;;;;;7.50;4.00;;;;;;;;;;4739016;30;20075;-84
2022/11/27 02:58:25;;;;;;;9.32;3.42;;;;;;;;;;4734997;30;20043;-84
2022/11/27 03:00:50;;;;;;;10.57;3.45;;;;;;;;;;4753101;30;20040;-84
2022/11/27 03:03:21;;;;;;;7.07;3.50;;;;;;;;;;4738411;30;20461;-84
2022/11/27 03:05:49;;;;;;;9.00;3.28;;;;;;;;;;4743937;30;20032;-85
2022/11/27 03:08:24;;;;;;;10.93;3.60;;;;;;;;;;4727314;30;20031;-84
2022/11/27 03:11:06;;;;;;;8.80;3.55;;;;;;;;;;4748629;30;20042;-84
2022/11/27 03:13:36;;;;;;;6.50;3.05;;;;;;;;;;4729124;30;20432;-84
2022/11/27 03:16:16;;;;;;;7.97;3.42;;;;;;;;;;4751770;30;20050;-84
2022/11/27 03:18:46;;;;;;;7.10;3.13;;;;;;;;;;4722955;30;20558;-84
2022/11/27 03:21:47;;;;;;;6.03;2.78;;;;;;;;;;4742633;30;20040;-84
2022/11/27 03:24:12;;;;;;;7.55;3.58;;;;;;;;;;4730073;30;20043;-84
2022/11/27 03:26:39;;;;;;;6.32;2.95;;;;;;;;;;4730688;30;20052;-85
2022/11/27 03:29:09;;;;;;;10.80;3.53;;;;;;;;;;4741951;30;20534;-84
2022/11/27 03:31:36;;;;;;;7.72;3.50;;;;;;;;;;4737909;30;20058;-84
2022/11/27 03:34:01;;;;;;;9.00;3.53;;;;;;;;;;4748114;30;20072;-84
2022/11/27 03:36:27;;;;;;;6.10;2.83;;;;;;;;;;4735436;30;20032;-84
2022/11/27 03:38:54;;;;;;;7.88;2.72;;;;;;;;;;4730151;30;20085;-85
2022/11/27 03:41:23;;;;;;;7.72;3.08;;;;;;;;;;4732188;30;20131;-84
2022/11/27 03:44:11;;;;;;;5.97;3.00;;;;;;;;;;4743499;30;20036;-84
2022/11/27 03:46:36;;;;;;;6.82;2.72;;;;;;;;;;4744218;30;20486;-84
2022/11/27 03:49:15;;;;;;;10.68;3.05;;;;;;;;;;4744510;30;20039;-85
2022/11/27 03:51:57;;;;;;;5.40;2.50;;;;;;;;;;4735173;30;20142;-84
2022/11/27 03:54:22;;;;;;;6.70;2.58;;;;;;;;;;4752563;30;20061;-84
2022/11/27 03:56:57;;;;;;;6.13;2.20;;;;;;;;;;4749635;30;20117;-84
2022/11/27 03:59:27;;;;;;;6.30;2.92;;;;;;;;;;4736834;30;20032;-84
2022/11/27 04:01:52;;;;;;;6.28;2.75;;;;;;;;;;4746073;30;20101;-84
2022/11/27 04:04:18;;;;;;;5.50;2.67;;;;;;;;;;4734736;30;20028;-83
2022/11/27 04:06:43;;;;;;;10.15;2.97;;;;;;;;;;4730306;30;20036;-84
2022/11/27 04:09:09;;;;;;;8.00;3.08;;;;;;;;;;4747649;30;20036;-85
2022/11/27 04:11:35;;;;;;;7.68;2.97;;;;;;;;;;4731856;30;20029;-84
2022/11/27 04:14:00;;;;;;;6.55;2.70;;;;;;;;;;4734504;30;20035;-85
2022/11/27 04:16:25;;;;;;;6.70;2.75;;;;;;;;;;4734790;30;20039;-84
2022/11/27 04:18:51;;;;;;;6.88;2.55;;;;;;;;;;4733000;30;20028;-84
2022/11/27 04:21:16;;;;;;;7.18;2.65;;;;;;;;;;4738968;30;20151;-84
2022/11/27 04:23:42;;;;;;;6.50;2.90;;;;;;;;;;4733138;30;20057;-84
2022/11/27 04:26:11;;;;;;;7.97;3.40;;;;;;;;;;4737747;30;20045;-84
2022/11/27 04:28:36;;;;;;;5.22;2.60;;;;;;;;;;4744844;30;20490;-84
2022/11/27 04:31:02;;;;;;;5.40;2.67;;;;;;;;;;4732083;30;20036;-84
2022/11/27 04:33:28;;;;;;;4.55;2.40;;;;;;;;;;4731930;30;20044;-84
2022/11/27 04:35:53;;;;;;;7.10;2.40;;;;;;;;;;4745425;30;20543;-84
2022/11/27 04:38:20;;;;;;;7.30;2.38;;;;;;;;;;4754357;30;20105;-84
2022/11/27 04:40:45;;;;;;;6.63;2.83;;;;;;;;;;4731654;30;20032;-84
2022/11/27 04:43:11;;;;;;;7.07;2.60;;;;;;;;;;4729113;30;20047;-84
2022/11/27 04:45:37;;;;;;;5.28;2.15;;;;;;;;;;4752209;30;20082;-84
2022/11/27 04:48:03;;;;;;;6.13;2.38;;;;;;;;;;4753748;30;20060;-83
2022/11/27 04:50:29;;;;;;;6.20;2.17;;;;;;;;;;4742225;30;20073;-84
2022/11/27 04:52:54;;;;;;;6.55;2.78;;;;;;;;;;4747833;30;20431;-84
2022/11/27 04:55:20;;;;;;;7.22;2.90;;;;;;;;;;4759160;30;20043;-85
2022/11/27 04:57:45;;;;;;;6.82;2.30;;;;;;;;;;4761646;30;20371;-84
2022/11/27 05:00:11;;;;;;;6.10;2.30;;;;;;;;;;4744263;30;20031;-84
2022/11/27 05:02:37;;;;;;;6.82;2.47;;;;;;;;;;4744209;30;20028;-84
2022/11/27 05:05:02;;;;;;;4.25;1.88;;;;;;;;;;4738668;30;20486;-84
2022/11/27 05:07:28;;;;;;;5.53;2.42;;;;;;;;;;4737156;30;20063;-84
2022/11/27 05:09:53;;;;;;;5.88;2.35;;;;;;;;;;4736143;30;20126;-84
2022/11/27 05:12:19;;;;;;;5.63;2.40;;;;;;;;;;4738210;30;20458;-84
2022/11/27 05:14:44;;;;;;;6.60;2.45;;;;;;;;;;4737920;30;20032;-84
2022/11/27 05:17:09;;;;;;;5.60;2.20;;;;;;;;;;4748386;30;20742;-84
2022/11/27 05:19:35;;;;;;;7.68;2.47;;;;;;;;;;4732403;30;20044;-84
2022/11/27 05:22:00;;;;;;;6.32;2.20;;;;;;;;;;4733860;30;20069;-84
2022/11/27 05:24:27;;;;;;;7.25;2.15;;;;;;;;;;4742440;30;20109;-84
2022/11/27 05:26:53;;;;;;;7.03;2.50;;;;;;;;;;4736307;30;20491;-85
2022/11/27 05:29:19;;;;;;;4.07;1.90;;;;;;;;;;4750051;30;21524;-85
2022/11/27 05:31:45;;;;;;;6.40;2.05;;;;;;;;;;4733453;30;20040;-85
2022/11/27 05:34:11;;;;;;;6.03;1.85;;;;;;;;;;4731480;30;20140;-84
2022/11/27 05:36:37;;;;;;;8.00;2.28;;;;;;;;;;4729320;30;20093;-85
2022/11/27 05:39:05;;;;;;;5.43;1.80;;;;;;;;;;4736213;30;20036;-84
2022/11/27 05:41:31;;;;;;;4.13;1.80;;;;;;;;;;4732611;30;20043;-84
2022/11/27 05:43:56;;;;;;;6.32;2.10;;;;;;;;;;4734410;30;20024;-85
2022/11/27 05:46:22;;;;;;;5.15;1.80;;;;;;;;;;4745704;30;20394;-84
2022/11/27 05:48:48;;;;;;;5.13;2.10;;;;;;;;;;4745735;30;20036;-85
2022/11/27 05:51:14;;;;;;;4.53;2.10;;;;;;;;;;4746638;30;20456;-85
2022/11/27 05:53:40;;;;;;;5.72;1.73;;;;;;;;;;4735515;30;20035;-85
2022/11/27 05:56:11;;;;;;;4.65;1.88;;;;;;;;;;4736365;30;20180;-85
2022/11/27 05:58:37;;;;;;;8.93;2.15;;;;;;;;;;4727634;30;20744;-84
2022/11/27 06:01:04;;;;;;;3.60;1.67;;;;;;;;;;4730945;30;20167;-85
2022/11/27 06:03:29;;;;;;;6.10;2.00;;;;;;;;;;4746015;30;20091;-85
2022/11/27 06:05:55;;;;;;;4.88;1.92;;;;;;;;;;4745318;30;20517;-85
2022/11/27 06:08:20;;;;;;;4.22;1.63;;;;;;;;;;4732481;30;20055;-85
2022/11/27 06:10:47;;;;;;;6.13;1.85;;;;;;;;;;4725841;30;20032;-85
2022/11/27 06:13:12;;;;;;;4.72;1.90;;;;;;;;;;4724217;30;20036;-85
2022/11/27 06:15:38;;;;;;;5.50;2.10;;;;;;;;;;4749961;30;20043;-84
2022/11/27 06:18:04;;;;;;;3.45;1.50;;;;;;;;;;4724719;30;20045;-85
2022/11/27 06:20:29;;;;;;;7.57;2.17;;;;;;;;;;4735434;30;20043;-85
2022/11/27 06:22:55;;;;;;;3.60;1.67;;;;;;;;;;4735126;30;20118;-85
2022/11/27 06:25:21;;;;;;;4.93;1.88;;;;;;;;;;4730888;30;20230;-84
2022/11/27 06:27:47;;;;;;;4.63;2.00;;;;;;;;;;4742038;30;20491;-84
2022/11/27 06:30:12;;;;;;;6.80;2.00;;;;;;;;;;4729879;30;20028;-85
2022/11/27 06:32:38;;;;;;;7.15;2.05;;;;;;;;;;4728741;30;20036;-85
2022/11/27 06:35:04;;;;;;;5.32;1.98;;;;;;;;;;4734387;30;20126;-85
2022/11/27 06:37:29;;;;;;;4.78;1.85;;;;;;;;;;4727671;30;20031;-85
2022/11/27 06:39:55;;;;;;;4.78;2.00;;;;;;;;;;4728583;30;20487;-84
2022/11/27 06:42:20;;;;;;;5.28;1.88;;;;;;;;;;4735216;30;20490;-84
2022/11/27 06:44:46;;;;;;;6.22;1.90;;;;;;;;;;4730316;30;20055;-85
2022/11/27 06:47:11;;;;;;;6.60;2.50;;;;;;;;;;4750275;30;20190;-84
2022/11/27 06:49:37;;;;;;;6.45;2.17;;;;;;;;;;4747813;30;20040;-84
2022/11/27 06:52:02;;;;;;;6.93;2.20;;;;;;;;;;4756358;30;20494;-84
2022/11/27 06:54:28;;;;;;;5.55;1.83;;;;;;;;;;4757140;30;20035;-84
2022/11/27 06:56:53;;;;;;;5.60;1.63;;;;;;;;;;4752650;30;20111;-85
2022/11/27 06:59:19;;;;;;;5.88;2.15;;;;;;;;;;4749201;30;20075;-84
2022/11/27 07:01:44;;;;;;;6.15;2.67;;;;;;;;;;4742625;30;20514;-84
2022/11/27 07:04:11;;;;;;;5.30;1.83;;;;;;;;;;4752285;30;20032;-84
2022/11/27 07:06:37;;;;;;;5.78;2.08;;;;;;;;;;4740227;30;20056;-84
2022/11/27 07:09:03;;;;;;;5.80;1.77;;;;;;;;;;4736686;30;20557;-84
2022/11/27 07:11:30;;;;;;;6.57;2.30;;;;;;;;;;4757483;30;20035;-85
2022/11/27 07:13:58;;;;;;;5.25;2.10;;;;;;;;;;4740713;30;20490;-85
2022/11/27 07:16:24;;;;;;;7.72;2.55;;;;;;;;;;4736933;30;20047;-84
2022/11/27 07:18:55;;;;;;;3.90;1.95;;;;;;;;;;4737707;30;20413;-84
2022/11/27 07:21:21;;;;;;;4.13;1.85;;;;;;;;;;4732185;30;20046;-84
2022/11/27 07:23:46;;;;;;;4.60;2.10;;;;;;;;;;4730294;30;20519;-84
2022/11/27 07:26:15;;;;;;;5.95;2.33;;;;;;;;;;4734989;30;20064;-84
2022/11/27 07:28:44;;;;;;;5.47;2.28;;;;;;;;;;4741490;30;20733;-84
2022/11/27 07:31:12;;;;;;;6.68;2.35;;;;;;;;;;4734626;30;20485;-84
2022/11/27 07:33:37;;;;;;;4.90;2.53;;;;;;;;;;4735451;30;20028;-83
2022/11/27 07:36:06;;;;;;;5.65;2.28;;;;;;;;;;4723729;30;20412;-84
2022/11/27 07:38:32;;;;;;;4.78;2.10;;;;;;;;;;4731050;30;20028;-84
2022/11/27 07:41:00;;;;;;;5.35;2.40;;;;;;;;;;4732046;30;20031;-84
2022/11/27 07:43:25;;;;;;;7.05;2.33;;;;;;;;;;4729839;30;20040;-84
2022/11/27 07:45:51;;;;;;;6.53;2.13;;;;;;;;;;4734828;30;20047;-83
2022/11/27 07:48:16;;;;;;;6.47;2.38;;;;;;;;;;4742979;30;20119;-84
2022/11/27 07:50:41;;;;;;;4.22;2.30;;;;;;;;;;4726344;30;20372;-83
2022/11/27 07:53:07;;;;;;;7.78;2.67;;;;;;;;;;4730138;30;20036;-84
2022/11/27 07:55:32;;;;;;;8.20;3.25;;;;;;;;;;4747893;30;20047;-83
2022/11/27 07:57:58;;;;;;;5.78;2.40;;;;;;;;;;4737430;30;20032;-83
2022/11/27 08:00:23;;;;;;;5.10;2.60;;;;;;;;;;4730585;30;20498;-84
2022/11/27 08:02:49;;;;;;;7.03;2.75;;;;;;;;;;4737535;30;20028;-85
2022/11/27 08:05:14;;;;;;;4.75;2.50;;;;;;;;;;4741574;30;20032;-84
2022/11/27 08:07:40;;;;;;;6.65;2.60;;;;;;;;;;4749193;30;20036;-84
2022/11/27 08:10:06;;;;;;;5.32;2.53;;;;;;;;;;4731936;30;20045;-84
2022/11/27 08:12:31;;;;;;;10.30;2.97;;;;;;;;;;4745246;30;20043;-84
2022/11/27 08:14:57;;;;;;;8.57;3.10;;;;;;;;;;4748898;30;20028;-84
2022/11/27 08:17:22;;;;;;;6.47;2.97;;;;;;;;;;4750603;30;20028;-85
2022/11/27 08:19:48;;;;;;;6.78;2.90;;;;;;;;;;4727203;30;20032;-85
2022/11/27 08:22:14;;;;;;;6.15;3.10;;;;;;;;;;4725875;30;20035;-84
2022/11/27 08:24:44;;;;;;;7.72;3.30;;;;;;;;;;4734126;30;20467;-84
2022/11/27 08:27:09;;;;;;;7.68;3.10;;;;;;;;;;4732922;30;20060;-84
2022/11/27 08:29:35;;;;;;;6.40;3.20;;;;;;;;;;4745032;30;20036;-84
2022/11/27 08:32:01;;;;;;;5.85;2.67;;;;;;;;;;4747760;30;20115;-85
2022/11/27 08:34:26;;;;;;;7.88;3.17;;;;;;;;;;4748863;30;20108;-84
2022/11/27 08:36:52;;;;;;;5.13;2.72;;;;;;;;;;4736517;30;20115;-84
2022/11/27 08:39:18;;;;;;;6.72;3.05;;;;;;;;;;4749310;30;20035;-84
2022/11/27 08:41:43;;;;;;;5.35;2.70;;;;;;;;;;4733139;30;20039;-84
2022/11/27 08:44:09;;;;;;;7.28;3.20;;;;;;;;;;4748656;30;20039;-84
2022/11/27 08:46:34;;;;;;;5.22;2.85;;;;;;;;;;4743008;30;20492;-84
2022/11/27 08:49:00;;;;;;;8.10;2.80;;;;;;;;;;4740723;30;20028;-85
2022/11/27 08:51:25;;;;;;;7.32;3.38;;;;;;;;;;4737334;30;20127;-85
2022/11/27 08:53:51;;;;;;;9.25;3.45;;;;;;;;;;4747947;30;20039;-84
2022/11/27 08:56:20;;;;;;;7.72;3.30;;;;;;;;;;4738041;30;20036;-85
2022/11/27 08:58:46;;;;;;;7.38;3.15;;;;;;;;;;4737119;30;20035;-84
2022/11/27 09:01:20;;;;;;;5.90;2.90;;;;;;;;;;4733488;30;20123;-84
2022/11/27 09:03:46;;;;;;;8.73;3.22;;;;;;;;;;4745756;30;20127;-85
2022/11/27 09:06:14;;;;;;;6.25;3.80;;;;;;;;;;4733634;30;20048;-83
2022/11/27 09:08:41;;;;;;;6.75;3.15;;;;;;;;;;4736475;30;20379;-84
2022/11/27 09:11:09;;;;;;;6.18;3.25;;;;;;;;;;4731823;30;20039;-84
2022/11/27 09:13:35;;;;;;;6.90;3.78;;;;;;;;;;4740708;30;20036;-84
2022/11/27 09:16:06;;;;;;;7.78;3.45;;;;;;;;;;4760526;30;20501;-84
2022/11/27 09:18:31;;;;;;;6.88;3.38;;;;;;;;;;4736998;30;20572;-84
2022/11/27 09:20:59;;;;;;;7.10;3.15;;;;;;;;;;4756616;30;20130;-84
2022/11/27 09:23:24;;;;;;;7.35;3.60;;;;;;;;;;4740436;30;20035;-83
2022/11/27 09:25:50;;;;;;;8.18;3.75;;;;;;;;;;4742542;30;20051;-84
2022/11/27 09:28:15;;;;;;;7.40;3.47;;;;;;;;;;4756829;30;20041;-84
2022/11/27 09:30:41;;;;;;;6.95;3.78;;;;;;;;;;4745760;30;20063;-84
2022/11/27 09:33:06;;;;;;;8.35;3.70;;;;;;;;;;4752092;30;20032;-84
2022/11/27 09:35:31;;;;;;;6.97;3.72;;;;;;;;;;4733715;30;20094;-84
2022/11/27 09:37:57;;;;;;;5.85;3.40;;;;;;;;;;4735936;30;20499;-83
2022/11/27 09:40:22;;;;;;;7.15;3.70;;;;;;;;;;4738350;30;20034;-84
2022/11/27 09:43:09;;;;;;;8.55;3.63;;;;;;;;;;4731471;30;20035;-84
2022/11/27 09:45:43;;;;;;;6.70;3.35;;;;;;;;;;4734727;30;20045;-83
2022/11/27 09:48:17;;;;;;;6.88;3.50;;;;;;;;;;4754613;30;20101;-83
2022/11/27 09:50:49;;;;;;;8.70;4.15;;;;;;;;;;4741129;30;20393;-83
2022/11/27 09:53:25;;;;;;;6.78;3.60;;;;;;;;;;4746335;30;20497;-83
2022/11/27 09:55:53;;;;;;;6.65;3.67;;;;;;;;;;4736758;30;20508;-83
2022/11/27 09:58:39;;;;;;;10.30;4.30;;;;;;;;;;4754838;30;20036;-84
2022/11/27 10:01:12;;;;;;;9.25;4.53;;;;;;;;;;4744346;30;20036;-83
2022/11/27 10:03:40;;;;;;;7.55;3.85;;;;;;;;;;4744602;30;20163;-84
2022/11/27 10:06:36;;;;;;;11.15;4.45;;;;;;;;;;4742230;30;20051;-83
2022/11/27 10:09:23;;;;;;;6.55;3.58;;;;;;;;;;4726813;30;20070;-83
2022/11/27 10:12:09;;;;;;;8.10;3.47;;;;;;;;;;4732358;30;20158;-83
2022/11/27 10:15:00;;;;;;;7.25;3.47;;;;;;;;;;4745322;30;20032;-83
2022/11/27 10:17:36;;;;;;;9.55;4.38;;;;;;;;;;4748193;30;20036;-84
2022/11/27 10:20:18;;;;;;;6.72;3.80;;;;;;;;;;4731924;30;20036;-83
2022/11/27 10:22:55;;;;;;;8.40;4.20;;;;;;;;;;4748704;30;20032;-84
2022/11/27 10:25:33;;;;;;;7.35;3.90;;;;;;;;;;4747517;30;20043;-83
2022/11/27 10:28:16;;;;;;;10.60;3.97;;;;;;;;;;4751373;30;20502;-82
2022/11/27 10:30:53;;;;;;;9.15;4.05;;;;;;;;;;4743375;30;20040;-82
2022/11/27 10:33:30;;;;;;;8.70;4.03;;;;;;;;;;4748384;30;20430;-83
2022/11/27 10:35:57;;;;;;;6.72;4.03;;;;;;;;;;4752764;30;20132;-83
2022/11/27 10:38:25;;;;;;;10.02;4.57;;;;;;;;;;4742669;30;20063;-83
2022/11/27 10:41:02;;;;;;;7.18;4.20;;;;;;;;;;4756436;30;20290;-83
2022/11/27 10:43:28;;;;;;;8.27;3.88;;;;;;;;;;4742010;30;20398;-84
2022/11/27 10:45:55;;;;;;;8.45;4.35;;;;;;;;;;4741772;30;20039;-83
2022/11/27 10:48:21;;;;;;;7.63;4.03;;;;;;;;;;4742241;30;20049;-84
2022/11/27 10:50:48;;;;;;;7.95;4.35;;;;;;;;;;4741053;30;20390;-84
2022/11/27 10:53:30;;;;;;;8.75;4.25;;;;;;;;;;4741783;30;20032;-83
2022/11/27 10:56:10;;;;;;;8.57;4.20;;;;;;;;;;4748165;30;20062;-83
2022/11/27 10:58:35;;;;;;;9.63;4.20;;;;;;;;;;4742838;30;20493;-84
2022/11/27 11:01:05;;;;;;;9.15;3.97;;;;;;;;;;4738871;30;20044;-83
2022/11/27 11:03:31;;;;;;;6.95;3.75;;;;;;;;;;4746106;30;20523;-84
2022/11/27 11:06:04;;;;;;;8.68;4.10;;;;;;;;;;4746667;30;20032;-83
2022/11/27 11:08:31;;;;;;;8.95;3.97;;;;;;;;;;4746722;30;20494;-82
2022/11/27 11:11:06;;;;;;;7.97;4.40;;;;;;;;;;4752110;30;20064;-83
2022/11/27 11:13:42;;;;;;;8.77;3.95;;;;;;;;;;4752826;30;20501;-83
2022/11/27 11:16:11;;;;;;;7.35;4.30;;;;;;;;;;4732213;30;20043;-83
2022/11/27 11:18:43;;;;;;;8.13;3.95;;;;;;;;;;4743027;30;20043;-83
2022/11/27 11:21:17;;;;;;;9.35;4.60;;;;;;;;;;4750792;30;20492;-84
2022/11/27 11:23:45;;;;;;;8.55;4.35;;;;;;;;;;4745131;30;20040;-84
2022/11/27 11:26:20;;;;;;;7.07;4.07;;;;;;;;;;4739462;30;20501;-84
2022/11/27 11:28:57;;;;;;;5.82;3.42;;;;;;;;;;4743498;30;20122;-84
2022/11/27 11:31:34;;;;;;;6.70;3.97;;;;;;;;;;4732134;30;20166;-84
2022/11/27 11:34:03;;;;;;;7.03;4.13;;;;;;;;;;4725958;30;20147;-84
2022/11/27 11:36:31;;;;;;;8.57;4.47;;;;;;;;;;4731777;30;20051;-84
2022/11/27 11:38:58;;;;;;;9.38;4.75;;;;;;;;;;4742259;30;20405;-83
2022/11/27 11:41:23;;;;;;;8.13;4.68;;;;;;;;;;4726824;30;20064;-84
2022/11/27 11:44:00;;;;;;;8.82;4.30;;;;;;;;;;4727026;30;20466;-84
2022/11/27 11:46:29;;;;;;;9.43;4.55;;;;;;;;;;4738729;30;20051;-84
2022/11/27 11:49:14;;;;;;;7.57;4.40;;;;;;;;;;4743459;30;20559;-84
2022/11/27 11:51:53;;;;;;;8.40;4.05;;;;;;;;;;4747805;30;20059;-83
2022/11/27 11:54:26;;;;;;;10.75;4.88;;;;;;;;;;4734598;30;20043;-83
2022/11/27 11:56:54;;;;;;;11.23;4.47;;;;;;;;;;4724925;30;20800;-84
2022/11/27 12:00:02;;;;;;;8.05;4.60;;;;;;;;;;4729138;30;20512;-83
2022/11/27 12:02:37;;;;;;;7.78;4.28;;;;;;;;;;4737686;30;20035;-83
2022/11/27 12:05:21;;;;;;;7.07;4.25;;;;;;;;;;4735173;30;20043;-83
2022/11/27 12:08:02;;;;;;;7.28;4.32;;;;;;;;;;4746370;30;20059;-83
2022/11/27 12:10:36;;;;;;;9.80;4.60;;;;;;;;;;4735065;30;20078;-83
2022/11/27 12:13:07;;;;;;;9.23;4.38;;;;;;;;;;4750541;30;20738;-83
2022/11/27 12:15:49;;;;;;;7.13;4.22;;;;;;;;;;4745509;30;20042;-83
2022/11/27 12:18:24;;;;;;;9.40;4.22;;;;;;;;;;4735390;30;20122;-83
2022/11/27 12:21:11;;;;;;;8.45;4.15;;;;;;;;;;4755504;30;20044;-83
2022/11/27 12:23:58;;;;;;;9.18;4.22;;;;;;;;;;4746182;30;20097;-83
2022/11/27 12:27:06;;;;;;;8.90;4.28;;;;;;;;;;4758177;30;20071;-83
2022/11/27 12:30:00;;;;;;;8.60;4.13;;;;;;;;;;4729595;30;20055;-83
2022/11/27 12:33:03;;;;;;;9.45;4.40;;;;;;;;;;4749283;30;20043;-83
2022/11/27 12:35:49;;;;;;;7.80;4.00;;;;;;;;;;4731377;30;20087;-83
2022/11/27 12:38:27;;;;;;;8.98;4.57;;;;;;;;;;4730434;30;20520;-83
2022/11/27 12:40:58;;;;;;;8.18;4.75;;;;;;;;;;4747317;30;20055;-83
2022/11/27 12:43:24;;;;;;;10.35;4.82;;;;;;;;;;4740543;30;20268;-83
2022/11/27 12:46:15;;;;;;;7.50;4.20;;;;;;;;;;4736555;30;20036;-83
2022/11/27 12:48:44;;;;;;;7.97;4.28;;;;;;;;;;4744384;30;20159;-83
2022/11/27 12:51:21;;;;;;;8.55;4.70;;;;;;;;;;4734080;30;20039;-83
2022/11/27 12:54:11;;;;;;;8.55;4.20;;;;;;;;;;4746739;30;20484;-83
2022/11/27 12:56:50;;;;;;;9.80;4.50;;;;;;;;;;4741341;30;20086;-83
2022/11/27 12:59:42;;;;;;;9.20;4.45;;;;;;;;;;4750610;30;20035;-83
2022/11/27 13:02:22;;;;;;;7.93;3.92;;;;;;;;;;4726521;30;20059;-83
2022/11/27 13:05:03;;;;;;;8.45;4.47;;;;;;;;;;4752116;30;20493;-83
2022/11/27 13:07:37;;;;;;;7.78;4.20;;;;;;;;;;4750100;30;20044;-83
2022/11/27 13:10:09;;;;;;;7.22;4.43;;;;;;;;;;4741044;30;20132;-83
2022/11/27 13:12:52;;;;;;;8.13;4.45;;;;;;;;;;4736404;30;20036;-83
2022/11/27 13:15:24;;;;;;;9.90;4.65;;;;;;;;;;4734227;30;20489;-83
2022/11/27 13:17:57;;;;;;;9.48;4.57;;;;;;;;;;4749033;30;20059;-82
2022/11/27 13:20:37;;;;;;;8.05;4.00;;;;;;;;;;4737144;30;20058;-83
2022/11/27 13:23:02;;;;;;;8.80;4.20;;;;;;;;;;4736396;30;20456;-83
2022/11/27 13:25:30;;;;;;;7.60;4.25;;;;;;;;;;4725911;30;20036;-84
2022/11/27 13:27:56;;;;;;;6.63;3.90;;;;;;;;;;4749874;30;20071;-83
2022/11/27 13:30:26;;;;;;;7.47;4.45;;;;;;;;;;4737706;30;20043;-84
2022/11/27 13:32:55;;;;;;;8.77;4.68;;;;;;;;;;4742107;30;20043;-83
2022/11/27 13:35:26;;;;;;;7.93;4.25;;;;;;;;;;4749641;30;20035;-83
2022/11/27 13:38:11;;;;;;;8.45;4.30;;;;;;;;;;4731457;30;20410;-84
2022/11/27 13:40:43;;;;;;;8.40;4.55;;;;;;;;;;4740564;30;20130;-83
2022/11/27 13:43:28;;;;;;;9.00;4.50;;;;;;;;;;4725404;30;20044;-83
2022/11/27 13:46:03;;;;;;;9.73;4.55;;;;;;;;;;4728161;30;20143;-83
2022/11/27 13:48:36;;;;;;;9.27;4.70;;;;;;;;;;4722814;30;20123;-83
2022/11/27 13:51:02;;;;;;;8.18;4.45;;;;;;;;;;4735230;30;20573;-82
2022/11/27 13:53:40;;;;;;;8.75;4.80;;;;;;;;;;4726045;30;20747;-83
2022/11/27 13:56:07;;;;;;;6.78;3.72;;;;;;;;;;4723722;30;20071;-84
2022/11/27 13:58:38;;;;;;;7.57;4.20;;;;;;;;;;4726225;30;20040;-83
2022/11/27 14:01:17;;;;;;;10.05;4.72;;;;;;;;;;4743633;30;20059;-83
2022/11/27 14:03:43;;;;;;;8.02;4.43;;;;;;;;;;4737332;30;20047;-83
2022/11/27 14:06:17;;;;;;;8.38;4.60;;;;;;;;;;4733003;30;20379;-83
2022/11/27 14:08:53;;;;;;;8.70;4.25;;;;;;;;;;4743660;30;20032;-83
2022/11/27 14:11:33;;;;;;;6.75;4.05;;;;;;;;;;4731469;30;20117;-82
2022/11/27 14:14:01;;;;;;;8.23;4.45;;;;;;;;;;4739470;30;20036;-82
2022/11/27 14:16:34;;;;;;;7.22;4.18;;;;;;;;;;4746783;30;20039;-83
2022/11/27 14:19:21;;;;;;;8.73;4.65;;;;;;;;;;4729240;30;20027;-82
2022/11/27 14:21:48;;;;;;;7.90;4.45;;;;;;;;;;4735981;30;20569;-82
2022/11/27 14:24:22;;;;;;;8.18;4.43;;;;;;;;;;4730024;30;20345;-82
2022/11/27 14:26:48;;;;;;;8.50;4.65;;;;;;;;;;4744882;30;20515;-82
2022/11/27 14:29:14;;;;;;;8.77;4.75;;;;;;;;;;4750164;30;20042;-82
2022/11/27 14:31:39;;;;;;;8.02;4.35;;;;;;;;;;4745314;30;20048;-83
2022/11/27 14:34:24;;;;;;;9.05;4.90;;;;;;;;;;4729802;30;20570;-82
2022/11/27 14:36:53;;;;;;;8.15;4.75;;;;;;;;;;4736116;30;20043;-82
2022/11/27 14:39:34;;;;;;;8.38;4.78;;;;;;;;;;4726343;30;20032;-82
2022/11/27 14:42:00;;;;;;;7.75;4.13;;;;;;;;;;4726291;30;20186;-82
2022/11/27 14:44:26;;;;;;;6.35;4.00;;;;;;;;;;4736374;30;20529;-82
2022/11/27 14:46:54;;;;;;;7.75;3.65;;;;;;;;;;4751133;30;20070;-82
2022/11/27 14:49:22;;;;;;;8.68;3.65;;;;;;;;;;4738288;30;20590;-83
2022/11/27 14:51:50;;;;;;;5.85;3.38;;;;;;;;;;4733017;30;20110;-82
2022/11/27 14:54:25;;;;;;;7.60;3.60;;;;;;;;;;4725580;30;20032;-82
2022/11/27 14:56:51;;;;;;;5.90;3.38;;;;;;;;;;4747081;30;20112;-82
2022/11/27 14:59:19;;;;;;;7.10;4.10;;;;;;;;;;4728063;30;20038;-83